sensor_id;sensor_type;location;lat;lon;timestamp;P1;durP1;ratioP1;P2;durP2;ratioP2
60464;SDS011;46314;52.392;9.758;2023-05-07T00:00:03;31.08;;;19.70;;
60464;SDS011;46314;52.392;9.758;2023-05-07T00:02:30;24.42;;;19.80;;
60464;SDS011;46314;52.392;9.758;2023-05-07T00:04:57;27.27;;;21.55;;
60464;SDS011;46314;52.392;9.758;2023-05-07T00:07:27;24.58;;;21.27;;
60464;SDS011;46314;52.392;9.758;2023-05-07T00:09:54;27.10;;;20.90;;
60464;SDS011;46314;52.392;9.758;2023-05-07T00:12:21;22.60;;;19.48;;
60464;SDS011;46314;52.392;9.758;2023-05-07T00:14:47;24.48;;;20.55;;
60464;SDS011;46314;52.392;9.758;2023-05-07T00:17:13;22.70;;;20.02;;
60464;SDS011;46314;52.392;9.758;2023-05-07T00:19:40;25.25;;;20.15;;
60464;SDS011;46314;52.392;9.758;2023-05-07T00:22:06;28.67;;;22.05;;
60464;SDS011;46314;52.392;9.758;2023-05-07T00:24:34;25.25;;;21.02;;
60464;SDS011;46314;52.392;9.758;2023-05-07T00:27:01;26.58;;;22.08;;
60464;SDS011;46314;52.392;9.758;2023-05-07T00:29:28;23.48;;;20.42;;
60464;SDS011;46314;52.392;9.758;2023-05-07T00:31:54;22.85;;;20.13;;
60464;SDS011;46314;52.392;9.758;2023-05-07T00:34:21;24.17;;;20.25;;
60464;SDS011;46314;52.392;9.758;2023-05-07T00:36:47;23.80;;;21.17;;
60464;SDS011;46314;52.392;9.758;2023-05-07T00:39:14;27.80;;;21.48;;
60464;SDS011;46314;52.392;9.758;2023-05-07T00:41:40;25.00;;;21.23;;
60464;SDS011;46314;52.392;9.758;2023-05-07T00:44:08;26.92;;;21.77;;
60464;SDS011;46314;52.392;9.758;2023-05-07T00:46:34;33.13;;;22.83;;
60464;SDS011;46314;52.392;9.758;2023-05-07T00:49:01;26.25;;;21.50;;
60464;SDS011;46314;52.392;9.758;2023-05-07T00:51:28;28.27;;;22.63;;
60464;SDS011;46314;52.392;9.758;2023-05-07T00:53:55;25.92;;;21.70;;
60464;SDS011;46314;52.392;9.758;2023-05-07T00:56:21;28.58;;;21.70;;
60464;SDS011;46314;52.392;9.758;2023-05-07T00:58:49;30.75;;;23.83;;
60464;SDS011;46314;52.392;9.758;2023-05-07T01:01:17;27.80;;;22.48;;
60464;SDS011;46314;52.392;9.758;2023-05-07T01:03:44;31.27;;;23.08;;
60464;SDS011;46314;52.392;9.758;2023-05-07T01:06:10;26.52;;;21.85;;
60464;SDS011;46314;52.392;9.758;2023-05-07T01:08:39;27.05;;;22.02;;
60464;SDS011;46314;52.392;9.758;2023-05-07T01:11:07;30.08;;;23.08;;
60464;SDS011;46314;52.392;9.758;2023-05-07T01:13:34;30.35;;;21.80;;
60464;SDS011;46314;52.392;9.758;2023-05-07T01:16:02;29.90;;;22.88;;
60464;SDS011;46314;52.392;9.758;2023-05-07T01:18:31;29.95;;;23.15;;
60464;SDS011;46314;52.392;9.758;2023-05-07T01:20:57;27.88;;;23.75;;
60464;SDS011;46314;52.392;9.758;2023-05-07T01:23:26;31.40;;;24.67;;
60464;SDS011;46314;52.392;9.758;2023-05-07T01:25:53;28.55;;;22.52;;
60464;SDS011;46314;52.392;9.758;2023-05-07T01:28:20;28.08;;;23.05;;
60464;SDS011;46314;52.392;9.758;2023-05-07T01:30:49;26.17;;;21.52;;
60464;SDS011;46314;52.392;9.758;2023-05-07T01:33:20;31.45;;;23.23;;
60464;SDS011;46314;52.392;9.758;2023-05-07T01:35:48;29.48;;;24.13;;
60464;SDS011;46314;52.392;9.758;2023-05-07T01:38:19;28.73;;;22.98;;
60464;SDS011;46314;52.392;9.758;2023-05-07T01:40:50;28.30;;;22.40;;
60464;SDS011;46314;52.392;9.758;2023-05-07T01:43:17;30.58;;;23.73;;
60464;SDS011;46314;52.392;9.758;2023-05-07T01:45:43;29.13;;;22.85;;
60464;SDS011;46314;52.392;9.758;2023-05-07T01:48:11;29.90;;;23.67;;
60464;SDS011;46314;52.392;9.758;2023-05-07T01:50:38;27.95;;;23.73;;
60464;SDS011;46314;52.392;9.758;2023-05-07T01:53:06;30.58;;;24.25;;
60464;SDS011;46314;52.392;9.758;2023-05-07T01:55:32;30.52;;;23.70;;
60464;SDS011;46314;52.392;9.758;2023-05-07T01:58:00;29.08;;;21.55;;
60464;SDS011;46314;52.392;9.758;2023-05-07T02:00:26;29.23;;;23.40;;
60464;SDS011;46314;52.392;9.758;2023-05-07T02:02:53;26.75;;;21.30;;
60464;SDS011;46314;52.392;9.758;2023-05-07T02:05:20;26.67;;;20.15;;
60464;SDS011;46314;52.392;9.758;2023-05-07T02:07:46;24.60;;;19.52;;
60464;SDS011;46314;52.392;9.758;2023-05-07T02:10:12;22.95;;;18.25;;
60464;SDS011;46314;52.392;9.758;2023-05-07T02:12:39;24.70;;;19.90;;
60464;SDS011;46314;52.392;9.758;2023-05-07T02:15:08;21.58;;;18.05;;
60464;SDS011;46314;52.392;9.758;2023-05-07T02:17:35;22.42;;;15.45;;
60464;SDS011;46314;52.392;9.758;2023-05-07T02:20:05;19.40;;;16.13;;
60464;SDS011;46314;52.392;9.758;2023-05-07T02:22:33;19.42;;;15.25;;
60464;SDS011;46314;52.392;9.758;2023-05-07T02:25:00;18.75;;;15.43;;
60464;SDS011;46314;52.392;9.758;2023-05-07T02:27:26;18.92;;;14.48;;
60464;SDS011;46314;52.392;9.758;2023-05-07T02:29:52;17.15;;;14.45;;
60464;SDS011;46314;52.392;9.758;2023-05-07T02:32:20;15.65;;;13.68;;
60464;SDS011;46314;52.392;9.758;2023-05-07T02:34:49;17.50;;;13.48;;
60464;SDS011;46314;52.392;9.758;2023-05-07T02:37:16;15.50;;;13.05;;
60464;SDS011;46314;52.392;9.758;2023-05-07T02:39:43;14.02;;;11.95;;
60464;SDS011;46314;52.392;9.758;2023-05-07T02:42:09;16.70;;;11.60;;
60464;SDS011;46314;52.392;9.758;2023-05-07T02:44:35;14.45;;;12.18;;
60464;SDS011;46314;52.392;9.758;2023-05-07T02:47:02;14.98;;;12.02;;
60464;SDS011;46314;52.392;9.758;2023-05-07T02:49:30;14.18;;;12.25;;
60464;SDS011;46314;52.392;9.758;2023-05-07T02:51:56;16.20;;;11.98;;
60464;SDS011;46314;52.392;9.758;2023-05-07T02:54:23;14.77;;;11.80;;
60464;SDS011;46314;52.392;9.758;2023-05-07T02:56:49;13.85;;;11.18;;
60464;SDS011;46314;52.392;9.758;2023-05-07T02:59:15;16.10;;;12.30;;
60464;SDS011;46314;52.392;9.758;2023-05-07T03:01:42;15.43;;;12.25;;
60464;SDS011;46314;52.392;9.758;2023-05-07T03:04:09;14.43;;;12.25;;
60464;SDS011;46314;52.392;9.758;2023-05-07T03:06:37;13.90;;;11.55;;
60464;SDS011;46314;52.392;9.758;2023-05-07T03:09:03;14.30;;;11.57;;
60464;SDS011;46314;52.392;9.758;2023-05-07T03:11:30;15.90;;;12.00;;
60464;SDS011;46314;52.392;9.758;2023-05-07T03:13:56;14.48;;;11.75;;
60464;SDS011;46314;52.392;9.758;2023-05-07T03:16:23;14.65;;;12.05;;
60464;SDS011;46314;52.392;9.758;2023-05-07T03:18:49;13.18;;;11.27;;
60464;SDS011;46314;52.392;9.758;2023-05-07T03:21:16;17.05;;;12.52;;
60464;SDS011;46314;52.392;9.758;2023-05-07T03:23:44;14.68;;;11.93;;
60464;SDS011;46314;52.392;9.758;2023-05-07T03:26:10;16.42;;;13.20;;
60464;SDS011;46314;52.392;9.758;2023-05-07T03:28:36;16.38;;;12.82;;
60464;SDS011;46314;52.392;9.758;2023-05-07T03:31:03;15.68;;;13.07;;
60464;SDS011;46314;52.392;9.758;2023-05-07T03:33:29;16.38;;;11.88;;
60464;SDS011;46314;52.392;9.758;2023-05-07T03:35:56;15.13;;;11.82;;
60464;SDS011;46314;52.392;9.758;2023-05-07T03:38:22;14.68;;;11.93;;
60464;SDS011;46314;52.392;9.758;2023-05-07T03:40:50;14.32;;;12.25;;
60464;SDS011;46314;52.392;9.758;2023-05-07T03:43:17;14.73;;;11.98;;
60464;SDS011;46314;52.392;9.758;2023-05-07T03:45:43;15.07;;;11.73;;
60464;SDS011;46314;52.392;9.758;2023-05-07T03:48:09;13.70;;;11.68;;
60464;SDS011;46314;52.392;9.758;2023-05-07T03:50:36;12.95;;;9.55;;
60464;SDS011;46314;52.392;9.758;2023-05-07T03:53:04;13.55;;;11.27;;
60464;SDS011;46314;52.392;9.758;2023-05-07T03:55:30;14.18;;;11.45;;
60464;SDS011;46314;52.392;9.758;2023-05-07T03:57:58;13.60;;;11.45;;
60464;SDS011;46314;52.392;9.758;2023-05-07T04:00:25;13.63;;;11.73;;
60464;SDS011;46314;52.392;9.758;2023-05-07T04:02:51;12.07;;;10.88;;
60464;SDS011;46314;52.392;9.758;2023-05-07T04:05:18;12.02;;;10.25;;
60464;SDS011;46314;52.392;9.758;2023-05-07T04:07:44;11.93;;;10.35;;
60464;SDS011;46314;52.392;9.758;2023-05-07T04:10:10;10.90;;;9.63;;
60464;SDS011;46314;52.392;9.758;2023-05-07T04:12:37;12.20;;;9.90;;
60464;SDS011;46314;52.392;9.758;2023-05-07T04:15:07;12.20;;;10.40;;
60464;SDS011;46314;52.392;9.758;2023-05-07T04:17:34;12.88;;;9.95;;
60464;SDS011;46314;52.392;9.758;2023-05-07T04:20:00;12.13;;;10.02;;
60464;SDS011;46314;52.392;9.758;2023-05-07T04:22:27;12.63;;;10.82;;
60464;SDS011;46314;52.392;9.758;2023-05-07T04:24:53;12.65;;;10.48;;
60464;SDS011;46314;52.392;9.758;2023-05-07T04:27:20;13.68;;;11.48;;
60464;SDS011;46314;52.392;9.758;2023-05-07T04:29:47;15.32;;;11.85;;
60464;SDS011;46314;52.392;9.758;2023-05-07T04:32:14;11.65;;;9.95;;
60464;SDS011;46314;52.392;9.758;2023-05-07T04:34:41;13.75;;;11.27;;
60464;SDS011;46314;52.392;9.758;2023-05-07T04:37:07;11.95;;;10.75;;
60464;SDS011;46314;52.392;9.758;2023-05-07T04:39:34;12.13;;;10.82;;
60464;SDS011;46314;52.392;9.758;2023-05-07T04:42:00;11.85;;;10.65;;
60464;SDS011;46314;52.392;9.758;2023-05-07T04:44:27;13.57;;;11.38;;
60464;SDS011;46314;52.392;9.758;2023-05-07T04:46:53;15.00;;;12.02;;
60464;SDS011;46314;52.392;9.758;2023-05-07T04:49:21;12.82;;;10.45;;
60464;SDS011;46314;52.392;9.758;2023-05-07T04:51:48;14.75;;;12.20;;
60464;SDS011;46314;52.392;9.758;2023-05-07T04:54:14;14.15;;;11.82;;
60464;SDS011;46314;52.392;9.758;2023-05-07T04:56:40;13.40;;;11.57;;
60464;SDS011;46314;52.392;9.758;2023-05-07T04:59:07;11.57;;;10.38;;
60464;SDS011;46314;52.392;9.758;2023-05-07T05:01:33;13.70;;;11.63;;
60464;SDS011;46314;52.392;9.758;2023-05-07T05:04:00;13.68;;;10.77;;
60464;SDS011;46314;52.392;9.758;2023-05-07T05:06:28;12.18;;;10.98;;
60464;SDS011;46314;52.392;9.758;2023-05-07T05:08:54;12.48;;;10.88;;
60464;SDS011;46314;52.392;9.758;2023-05-07T05:11:21;14.80;;;10.77;;
60464;SDS011;46314;52.392;9.758;2023-05-07T05:13:47;12.65;;;9.82;;
60464;SDS011;46314;52.392;9.758;2023-05-07T05:16:14;12.50;;;10.77;;
60464;SDS011;46314;52.392;9.758;2023-05-07T05:18:40;13.15;;;11.02;;
60464;SDS011;46314;52.392;9.758;2023-05-07T05:21:07;12.88;;;10.90;;
60464;SDS011;46314;52.392;9.758;2023-05-07T05:23:35;11.00;;;9.85;;
60464;SDS011;46314;52.392;9.758;2023-05-07T05:26:01;13.45;;;9.95;;
60464;SDS011;46314;52.392;9.758;2023-05-07T05:28:28;11.43;;;9.88;;
60464;SDS011;46314;52.392;9.758;2023-05-07T05:30:54;10.98;;;9.80;;
60464;SDS011;46314;52.392;9.758;2023-05-07T05:33:20;10.93;;;9.82;;
60464;SDS011;46314;52.392;9.758;2023-05-07T05:35:47;12.57;;;11.05;;
60464;SDS011;46314;52.392;9.758;2023-05-07T05:38:13;12.70;;;10.30;;
60464;SDS011;46314;52.392;9.758;2023-05-07T05:40:41;14.48;;;11.13;;
60464;SDS011;46314;52.392;9.758;2023-05-07T05:43:07;11.18;;;9.73;;
60464;SDS011;46314;52.392;9.758;2023-05-07T05:45:34;11.98;;;10.05;;
60464;SDS011;46314;52.392;9.758;2023-05-07T05:48:00;11.32;;;10.05;;
60464;SDS011;46314;52.392;9.758;2023-05-07T05:50:27;11.25;;;10.07;;
60464;SDS011;46314;52.392;9.758;2023-05-07T05:52:53;11.27;;;10.07;;
60464;SDS011;46314;52.392;9.758;2023-05-07T05:55:20;9.95;;;8.95;;
60464;SDS011;46314;52.392;9.758;2023-05-07T05:57:48;10.60;;;9.50;;
60464;SDS011;46314;52.392;9.758;2023-05-07T06:00:15;9.05;;;8.07;;
60464;SDS011;46314;52.392;9.758;2023-05-07T06:02:42;12.05;;;9.52;;
60464;SDS011;46314;52.392;9.758;2023-05-07T06:05:09;10.35;;;9.35;;
60464;SDS011;46314;52.392;9.758;2023-05-07T06:07:36;10.40;;;9.30;;
60464;SDS011;46314;52.392;9.758;2023-05-07T06:10:03;12.23;;;9.93;;
60464;SDS011;46314;52.392;9.758;2023-05-07T06:12:30;12.05;;;8.98;;
60464;SDS011;46314;52.392;9.758;2023-05-07T06:14:58;10.45;;;9.27;;
60464;SDS011;46314;52.392;9.758;2023-05-07T06:17:24;9.90;;;8.27;;
60464;SDS011;46314;52.392;9.758;2023-05-07T06:19:51;9.57;;;8.45;;
60464;SDS011;46314;52.392;9.758;2023-05-07T06:22:18;10.40;;;8.45;;
60464;SDS011;46314;52.392;9.758;2023-05-07T06:24:45;11.05;;;8.73;;
60464;SDS011;46314;52.392;9.758;2023-05-07T06:27:11;10.00;;;8.70;;
60464;SDS011;46314;52.392;9.758;2023-05-07T06:29:38;10.52;;;9.32;;
60464;SDS011;46314;52.392;9.758;2023-05-07T06:32:09;10.82;;;9.27;;
60464;SDS011;46314;52.392;9.758;2023-05-07T06:34:36;10.02;;;9.02;;
60464;SDS011;46314;52.392;9.758;2023-05-07T06:37:04;10.15;;;8.73;;
60464;SDS011;46314;52.392;9.758;2023-05-07T06:39:31;11.70;;;9.30;;
60464;SDS011;46314;52.392;9.758;2023-05-07T06:41:59;9.82;;;8.25;;
60464;SDS011;46314;52.392;9.758;2023-05-07T06:44:26;9.88;;;8.82;;
60464;SDS011;46314;52.392;9.758;2023-05-07T06:46:52;9.50;;;8.50;;
60464;SDS011;46314;52.392;9.758;2023-05-07T06:49:20;10.05;;;9.07;;
60464;SDS011;46314;52.392;9.758;2023-05-07T06:51:47;9.68;;;8.77;;
60464;SDS011;46314;52.392;9.758;2023-05-07T06:54:13;10.73;;;9.68;;
60464;SDS011;46314;52.392;9.758;2023-05-07T06:56:40;9.98;;;8.98;;
60464;SDS011;46314;52.392;9.758;2023-05-07T06:59:07;11.63;;;10.45;;
60464;SDS011;46314;52.392;9.758;2023-05-07T07:01:33;12.95;;;11.57;;
60464;SDS011;46314;52.392;9.758;2023-05-07T07:04:00;12.27;;;11.07;;
60464;SDS011;46314;52.392;9.758;2023-05-07T07:06:28;12.93;;;11.60;;
60464;SDS011;46314;52.392;9.758;2023-05-07T07:08:54;12.68;;;11.30;;
60464;SDS011;46314;52.392;9.758;2023-05-07T07:11:21;13.05;;;11.73;;
60464;SDS011;46314;52.392;9.758;2023-05-07T07:13:47;14.23;;;12.73;;
60464;SDS011;46314;52.392;9.758;2023-05-07T07:16:13;13.88;;;12.55;;
60464;SDS011;46314;52.392;9.758;2023-05-07T07:18:40;14.80;;;13.20;;
60464;SDS011;46314;52.392;9.758;2023-05-07T07:21:06;13.73;;;12.43;;
60464;SDS011;46314;52.392;9.758;2023-05-07T07:23:34;15.43;;;13.85;;
60464;SDS011;46314;52.392;9.758;2023-05-07T07:26:01;14.52;;;13.05;;
60464;SDS011;46314;52.392;9.758;2023-05-07T07:28:27;14.82;;;13.32;;
60464;SDS011;46314;52.392;9.758;2023-05-07T07:30:54;14.18;;;12.77;;
60464;SDS011;46314;52.392;9.758;2023-05-07T07:33:20;15.30;;;13.00;;
60464;SDS011;46314;52.392;9.758;2023-05-07T07:35:47;14.00;;;12.50;;
60464;SDS011;46314;52.392;9.758;2023-05-07T07:38:13;14.65;;;13.25;;
60464;SDS011;46314;52.392;9.758;2023-05-07T07:40:41;15.27;;;13.75;;
60464;SDS011;46314;52.392;9.758;2023-05-07T07:43:07;14.70;;;13.20;;
60464;SDS011;46314;52.392;9.758;2023-05-07T07:45:34;14.32;;;12.93;;
60464;SDS011;46314;52.392;9.758;2023-05-07T07:48:00;24.23;;;13.30;;
60464;SDS011;46314;52.392;9.758;2023-05-07T07:50:27;12.98;;;11.68;;
60464;SDS011;46314;52.392;9.758;2023-05-07T07:53:10;12.35;;;11.05;;
60464;SDS011;46314;52.392;9.758;2023-05-07T07:55:37;12.30;;;10.98;;
60464;SDS011;46314;52.392;9.758;2023-05-07T07:58:05;10.70;;;9.48;;
60464;SDS011;46314;52.392;9.758;2023-05-07T08:00:32;12.25;;;11.05;;
60464;SDS011;46314;52.392;9.758;2023-05-07T08:02:58;12.18;;;10.88;;
60464;SDS011;46314;52.392;9.758;2023-05-07T08:05:25;11.88;;;10.50;;
60464;SDS011;46314;52.392;9.758;2023-05-07T08:07:52;11.20;;;10.10;;
60464;SDS011;46314;52.392;9.758;2023-05-07T08:10:18;11.30;;;10.20;;
60464;SDS011;46314;52.392;9.758;2023-05-07T08:12:44;11.85;;;9.63;;
60464;SDS011;46314;52.392;9.758;2023-05-07T08:15:12;11.07;;;9.27;;
60464;SDS011;46314;52.392;9.758;2023-05-07T08:17:42;10.95;;;9.95;;
60464;SDS011;46314;52.392;9.758;2023-05-07T08:20:09;11.98;;;9.75;;
60464;SDS011;46314;52.392;9.758;2023-05-07T08:22:36;10.93;;;9.57;;
60464;SDS011;46314;52.392;9.758;2023-05-07T08:25:03;11.77;;;10.60;;
60464;SDS011;46314;52.392;9.758;2023-05-07T08:27:30;11.20;;;9.55;;
60464;SDS011;46314;52.392;9.758;2023-05-07T08:29:57;10.93;;;9.82;;
60464;SDS011;46314;52.392;9.758;2023-05-07T08:32:24;10.35;;;9.25;;
60464;SDS011;46314;52.392;9.758;2023-05-07T08:34:51;10.60;;;9.60;;
60464;SDS011;46314;52.392;9.758;2023-05-07T08:37:17;11.20;;;10.10;;
60464;SDS011;46314;52.392;9.758;2023-05-07T08:39:44;10.57;;;9.57;;
60464;SDS011;46314;52.392;9.758;2023-05-07T08:42:10;10.00;;;9.10;;
60464;SDS011;46314;52.392;9.758;2023-05-07T08:44:38;9.85;;;8.65;;
60464;SDS011;46314;52.392;9.758;2023-05-07T08:47:06;9.88;;;8.93;;
60464;SDS011;46314;52.392;9.758;2023-05-07T08:49:34;12.60;;;9.73;;
60464;SDS011;46314;52.392;9.758;2023-05-07T08:52:01;10.80;;;9.80;;
60464;SDS011;46314;52.392;9.758;2023-05-07T08:54:28;13.88;;;10.20;;
60464;SDS011;46314;52.392;9.758;2023-05-07T08:56:54;10.90;;;9.57;;
60464;SDS011;46314;52.392;9.758;2023-05-07T08:59:21;10.95;;;9.70;;
60464;SDS011;46314;52.392;9.758;2023-05-07T09:01:47;12.57;;;9.70;;
60464;SDS011;46314;52.392;9.758;2023-05-07T09:04:14;14.48;;;9.30;;
60464;SDS011;46314;52.392;9.758;2023-05-07T09:06:42;10.23;;;9.23;;
60464;SDS011;46314;52.392;9.758;2023-05-07T09:09:09;9.95;;;8.95;;
60464;SDS011;46314;52.392;9.758;2023-05-07T09:11:35;12.88;;;10.57;;
60464;SDS011;46314;52.392;9.758;2023-05-07T09:14:01;11.63;;;10.43;;
60464;SDS011;46314;52.392;9.758;2023-05-07T09:16:28;10.85;;;9.85;;
60464;SDS011;46314;52.392;9.758;2023-05-07T09:18:57;12.88;;;11.68;;
60464;SDS011;46314;52.392;9.758;2023-05-07T09:21:25;10.93;;;9.75;;
60464;SDS011;46314;52.392;9.758;2023-05-07T09:23:53;12.30;;;10.52;;
60464;SDS011;46314;52.392;9.758;2023-05-07T09:26:21;13.25;;;11.85;;
60464;SDS011;46314;52.392;9.758;2023-05-07T09:28:48;11.77;;;10.57;;
60464;SDS011;46314;52.392;9.758;2023-05-07T09:31:15;12.43;;;11.07;;
60464;SDS011;46314;52.392;9.758;2023-05-07T09:33:44;12.25;;;11.05;;
60464;SDS011;46314;52.392;9.758;2023-05-07T09:36:11;10.95;;;9.77;;
60464;SDS011;46314;52.392;9.758;2023-05-07T09:38:38;16.17;;;9.63;;
60464;SDS011;46314;52.392;9.758;2023-05-07T09:41:06;11.85;;;10.65;;
60464;SDS011;46314;52.392;9.758;2023-05-07T09:43:34;11.68;;;10.48;;
60464;SDS011;46314;52.392;9.758;2023-05-07T09:46:02;11.50;;;10.40;;
60464;SDS011;46314;52.392;9.758;2023-05-07T09:48:29;11.43;;;10.30;;
60464;SDS011;46314;52.392;9.758;2023-05-07T09:50:56;11.63;;;10.50;;
60464;SDS011;46314;52.392;9.758;2023-05-07T09:53:24;13.43;;;11.70;;
60464;SDS011;46314;52.392;9.758;2023-05-07T09:55:51;11.82;;;10.52;;
60464;SDS011;46314;52.392;9.758;2023-05-07T09:58:20;11.15;;;10.15;;
60464;SDS011;46314;52.392;9.758;2023-05-07T10:00:48;11.60;;;10.50;;
60464;SDS011;46314;52.392;9.758;2023-05-07T10:03:15;12.57;;;11.27;;
60464;SDS011;46314;52.392;9.758;2023-05-07T10:05:42;13.18;;;11.77;;
60464;SDS011;46314;52.392;9.758;2023-05-07T10:08:09;12.57;;;11.32;;
60464;SDS011;46314;52.392;9.758;2023-05-07T10:10:37;12.18;;;10.98;;
60464;SDS011;46314;52.392;9.758;2023-05-07T10:13:03;12.13;;;10.93;;
60464;SDS011;46314;52.392;9.758;2023-05-07T10:15:32;12.05;;;10.95;;
60464;SDS011;46314;52.392;9.758;2023-05-07T10:17:58;12.88;;;11.57;;
60464;SDS011;46314;52.392;9.758;2023-05-07T10:20:25;12.75;;;11.55;;
60464;SDS011;46314;52.392;9.758;2023-05-07T10:22:53;12.98;;;11.68;;
60464;SDS011;46314;52.392;9.758;2023-05-07T10:25:23;14.95;;;11.65;;
60464;SDS011;46314;52.392;9.758;2023-05-07T10:27:57;14.32;;;11.88;;
60464;SDS011;46314;52.392;9.758;2023-05-07T10:30:33;12.98;;;11.77;;
60464;SDS011;46314;52.392;9.758;2023-05-07T10:33:09;12.25;;;10.95;;
60464;SDS011;46314;52.392;9.758;2023-05-07T10:35:43;13.20;;;12.00;;
60464;SDS011;46314;52.392;9.758;2023-05-07T10:38:11;12.05;;;10.85;;
60464;SDS011;46314;52.392;9.758;2023-05-07T10:40:37;11.68;;;10.57;;
60464;SDS011;46314;52.392;9.758;2023-05-07T10:43:04;11.77;;;10.60;;
60464;SDS011;46314;52.392;9.758;2023-05-07T10:45:35;11.13;;;10.02;;
60464;SDS011;46314;52.392;9.758;2023-05-07T10:48:10;10.23;;;9.13;;
60464;SDS011;46314;52.392;9.758;2023-05-07T10:50:41;10.55;;;9.55;;
60464;SDS011;46314;52.392;9.758;2023-05-07T10:53:23;10.63;;;9.57;;
60464;SDS011;46314;52.392;9.758;2023-05-07T10:55:51;10.20;;;9.15;;
60464;SDS011;46314;52.392;9.758;2023-05-07T10:58:39;10.93;;;9.88;;
60464;SDS011;46314;52.392;9.758;2023-05-07T11:01:05;9.93;;;8.93;;
60464;SDS011;46314;52.392;9.758;2023-05-07T11:03:32;10.18;;;9.18;;
60464;SDS011;46314;52.392;9.758;2023-05-07T11:06:09;9.65;;;8.75;;
60464;SDS011;46314;52.392;9.758;2023-05-07T11:08:52;11.15;;;10.13;;
60464;SDS011;46314;52.392;9.758;2023-05-07T11:11:19;9.85;;;8.88;;
60464;SDS011;46314;52.392;9.758;2023-05-07T11:13:47;10.02;;;9.13;;
60464;SDS011;46314;52.392;9.758;2023-05-07T11:16:16;11.52;;;9.35;;
60464;SDS011;46314;52.392;9.758;2023-05-07T11:18:47;10.65;;;8.73;;
60464;SDS011;46314;52.392;9.758;2023-05-07T11:21:16;10.18;;;9.23;;
60464;SDS011;46314;52.392;9.758;2023-05-07T11:23:58;9.45;;;8.55;;
60464;SDS011;46314;52.392;9.758;2023-05-07T11:26:26;10.25;;;8.68;;
60464;SDS011;46314;52.392;9.758;2023-05-07T11:28:55;9.50;;;8.57;;
60464;SDS011;46314;52.392;9.758;2023-05-07T11:31:22;9.23;;;8.30;;
60464;SDS011;46314;52.392;9.758;2023-05-07T11:33:51;9.30;;;8.45;;
60464;SDS011;46314;52.392;9.758;2023-05-07T11:36:18;8.50;;;7.80;;
60464;SDS011;46314;52.392;9.758;2023-05-07T11:38:45;10.75;;;8.25;;
60464;SDS011;46314;52.392;9.758;2023-05-07T11:41:11;8.75;;;7.95;;
60464;SDS011;46314;52.392;9.758;2023-05-07T11:43:37;9.60;;;8.60;;
60464;SDS011;46314;52.392;9.758;2023-05-07T11:46:06;9.32;;;8.45;;
60464;SDS011;46314;52.392;9.758;2023-05-07T11:48:34;9.00;;;8.20;;
60464;SDS011;46314;52.392;9.758;2023-05-07T11:51:01;9.07;;;7.47;;
60464;SDS011;46314;52.392;9.758;2023-05-07T11:53:34;9.93;;;9.02;;
60464;SDS011;46314;52.392;9.758;2023-05-07T11:56:05;8.60;;;7.75;;
60464;SDS011;46314;52.392;9.758;2023-05-07T11:58:32;9.15;;;8.20;;
60464;SDS011;46314;52.392;9.758;2023-05-07T12:00:59;9.25;;;8.35;;
60464;SDS011;46314;52.392;9.758;2023-05-07T12:03:27;8.98;;;8.10;;
60464;SDS011;46314;52.392;9.758;2023-05-07T12:05:57;8.70;;;7.68;;
60464;SDS011;46314;52.392;9.758;2023-05-07T12:08:23;7.82;;;7.00;;
60464;SDS011;46314;52.392;9.758;2023-05-07T12:10:50;8.40;;;7.60;;
60464;SDS011;46314;52.392;9.758;2023-05-07T12:13:17;9.48;;;8.57;;
60464;SDS011;46314;52.392;9.758;2023-05-07T12:15:44;12.80;;;6.93;;
60464;SDS011;46314;52.392;9.758;2023-05-07T12:18:11;9.27;;;7.72;;
60464;SDS011;46314;52.392;9.758;2023-05-07T12:20:39;7.95;;;7.20;;
60464;SDS011;46314;52.392;9.758;2023-05-07T12:23:06;8.93;;;8.05;;
60464;SDS011;46314;52.392;9.758;2023-05-07T12:25:34;8.63;;;7.80;;
60464;SDS011;46314;52.392;9.758;2023-05-07T12:28:01;7.45;;;6.68;;
60464;SDS011;46314;52.392;9.758;2023-05-07T12:30:27;7.53;;;6.82;;
60464;SDS011;46314;52.392;9.758;2023-05-07T12:32:54;7.40;;;6.70;;
60464;SDS011;46314;52.392;9.758;2023-05-07T12:35:27;7.40;;;6.70;;
60464;SDS011;46314;52.392;9.758;2023-05-07T12:37:56;6.93;;;6.22;;
60464;SDS011;46314;52.392;9.758;2023-05-07T12:40:22;7.22;;;6.53;;
60464;SDS011;46314;52.392;9.758;2023-05-07T12:42:49;7.82;;;6.97;;
60464;SDS011;46314;52.392;9.758;2023-05-07T12:45:19;7.07;;;6.38;;
60464;SDS011;46314;52.392;9.758;2023-05-07T12:47:46;7.00;;;6.40;;
60464;SDS011;46314;52.392;9.758;2023-05-07T12:50:13;5.88;;;5.38;;
60464;SDS011;46314;52.392;9.758;2023-05-07T12:52:40;7.22;;;6.63;;
60464;SDS011;46314;52.392;9.758;2023-05-07T12:55:08;6.85;;;6.25;;
60464;SDS011;46314;52.392;9.758;2023-05-07T12:57:39;6.80;;;6.20;;
60464;SDS011;46314;52.392;9.758;2023-05-07T13:00:06;5.78;;;5.28;;
60464;SDS011;46314;52.392;9.758;2023-05-07T13:02:34;7.32;;;6.68;;
60464;SDS011;46314;52.392;9.758;2023-05-07T13:05:03;6.93;;;6.22;;
60464;SDS011;46314;52.392;9.758;2023-05-07T13:07:30;8.77;;;7.97;;
60464;SDS011;46314;52.392;9.758;2023-05-07T13:09:56;8.27;;;7.43;;
60464;SDS011;46314;52.392;9.758;2023-05-07T13:12:24;8.85;;;8.05;;
60464;SDS011;46314;52.392;9.758;2023-05-07T13:14:50;7.57;;;6.82;;
60464;SDS011;46314;52.392;9.758;2023-05-07T13:17:17;8.15;;;7.45;;
60464;SDS011;46314;52.392;9.758;2023-05-07T13:19:43;8.07;;;7.38;;
60464;SDS011;46314;52.392;9.758;2023-05-07T13:22:10;7.90;;;7.28;;
60464;SDS011;46314;52.392;9.758;2023-05-07T13:24:36;7.13;;;6.50;;
60464;SDS011;46314;52.392;9.758;2023-05-07T13:27:03;8.40;;;7.70;;
60464;SDS011;46314;52.392;9.758;2023-05-07T13:29:31;7.53;;;6.78;;
60464;SDS011;46314;52.392;9.758;2023-05-07T13:31:57;7.82;;;7.22;;
60464;SDS011;46314;52.392;9.758;2023-05-07T13:34:24;6.85;;;6.32;;
60464;SDS011;46314;52.392;9.758;2023-05-07T13:36:50;11.50;;;8.02;;
60464;SDS011;46314;52.392;9.758;2023-05-07T13:39:17;8.60;;;7.82;;
60464;SDS011;46314;52.392;9.758;2023-05-07T13:41:43;9.18;;;8.38;;
60464;SDS011;46314;52.392;9.758;2023-05-07T13:44:10;9.90;;;8.93;;
60464;SDS011;46314;52.392;9.758;2023-05-07T13:46:38;8.25;;;7.55;;
60464;SDS011;46314;52.392;9.758;2023-05-07T13:49:04;8.82;;;7.93;;
60464;SDS011;46314;52.392;9.758;2023-05-07T13:51:30;8.27;;;7.53;;
60464;SDS011;46314;52.392;9.758;2023-05-07T13:53:57;9.25;;;8.45;;
60464;SDS011;46314;52.392;9.758;2023-05-07T13:56:23;8.73;;;7.93;;
60464;SDS011;46314;52.392;9.758;2023-05-07T13:58:49;9.52;;;8.70;;
60464;SDS011;46314;52.392;9.758;2023-05-07T14:01:26;8.75;;;7.95;;
60464;SDS011;46314;52.392;9.758;2023-05-07T14:03:55;8.63;;;7.80;;
60464;SDS011;46314;52.392;9.758;2023-05-07T14:06:22;8.27;;;7.25;;
60464;SDS011;46314;52.392;9.758;2023-05-07T14:08:48;9.27;;;7.35;;
60464;SDS011;46314;52.392;9.758;2023-05-07T14:11:14;8.82;;;7.47;;
60464;SDS011;46314;52.392;9.758;2023-05-07T14:13:41;8.20;;;7.38;;
60464;SDS011;46314;52.392;9.758;2023-05-07T14:16:07;8.73;;;7.93;;
60464;SDS011;46314;52.392;9.758;2023-05-07T14:18:34;8.07;;;7.13;;
60464;SDS011;46314;52.392;9.758;2023-05-07T14:21:01;8.27;;;7.47;;
60464;SDS011;46314;52.392;9.758;2023-05-07T14:23:28;8.38;;;7.00;;
60464;SDS011;46314;52.392;9.758;2023-05-07T14:25:54;8.27;;;7.47;;
60464;SDS011;46314;52.392;9.758;2023-05-07T14:28:21;8.30;;;7.20;;
60464;SDS011;46314;52.392;9.758;2023-05-07T14:30:47;7.57;;;6.88;;